TAF Text Data
IDs:
Format:
Raw Decoded Include METAR

Data at: 1335 UTC 08 May 2021

METAR for:KRYW (Lago Vista/Allen Arp, TX, US)
Text:KRYW 081315Z AUTO 18006KT 10SM OVC009 20/19 A2998 RMK AO2 T02030185
Temperature: 20.3°C ( 69°F)
Dewpoint: 18.5°C ( 65°F) [RH = 89%]
Pressure (altimeter):29.98 inches Hg (1015.3 mb)
Winds:from the S (180 degrees) at 7 MPH (6 knots; 3.1 m/s)
Visibility:10 or more sm (16+ km)
Ceiling:900 feet AGL
Clouds: overcast cloud deck at 900 feet AGL
QC Flag:automated observation with no human augmentation

TAF for:KRYW (Lago Vista/Allen Arp, TX, US)
Text:No data found